createdAt,value
2022-12-23T00:01:01.374Z,0.61
2022-12-23T00:03:30.350Z,1.00
2022-12-23T00:05:58.395Z,0.94
2022-12-23T00:08:27.060Z,0.89
2022-12-23T00:10:58.146Z,0.51
2022-12-23T00:13:43.368Z,1.02
2022-12-23T00:16:13.538Z,0.85
2022-12-23T00:18:41.862Z,0.96
2022-12-23T00:21:12.478Z,0.74
2022-12-23T00:23:44.466Z,0.86
2022-12-23T00:26:17.218Z,0.87
2022-12-23T00:28:45.172Z,0.86
2022-12-23T00:31:14.441Z,1.05
2022-12-23T00:33:44.249Z,1.20
2022-12-23T00:36:14.048Z,1.17
2022-12-23T00:39:05.056Z,1.33
2022-12-23T00:41:51.760Z,1.42
2022-12-23T00:44:19.849Z,1.48
2022-12-23T00:46:47.871Z,1.38
2022-12-23T00:49:35.237Z,1.50
2022-12-23T00:52:03.701Z,1.41
2022-12-23T00:54:32.368Z,1.39
2022-12-23T00:57:02.320Z,0.94
2022-12-23T00:59:30.385Z,1.22
2022-12-23T01:02:15.837Z,1.10
2022-12-23T01:05:01.022Z,1.09
2022-12-23T01:07:29.130Z,1.24
2022-12-23T01:09:57.075Z,0.72
2022-12-23T01:12:26.307Z,1.20
2022-12-23T01:14:54.206Z,1.11
2022-12-23T01:17:22.291Z,1.29
2022-12-23T01:19:51.443Z,1.14
2022-12-23T01:22:19.336Z,1.28
2022-12-23T01:24:47.310Z,1.19
2022-12-23T01:27:15.161Z,1.29
2022-12-23T01:29:44.455Z,1.28
2022-12-23T01:32:12.310Z,1.33
2022-12-23T01:34:40.287Z,1.50
2022-12-23T01:37:08.354Z,1.45
2022-12-23T01:39:36.283Z,1.57
2022-12-23T01:42:22.030Z,1.31
2022-12-23T01:44:54.930Z,1.43
2022-12-23T01:47:30.626Z,1.48
2022-12-23T01:50:04.162Z,1.42
2022-12-23T01:52:35.624Z,1.66
2022-12-23T01:55:05.173Z,1.56
2022-12-23T01:57:33.679Z,1.41
2022-12-23T02:00:20.324Z,1.38
2022-12-23T02:03:09.269Z,1.27
2022-12-23T02:05:37.521Z,1.48
2022-12-23T02:08:22.729Z,1.58
2022-12-23T02:11:07.403Z,1.49
2022-12-23T02:14:02.591Z,1.71
2022-12-23T02:16:35.640Z,1.57
2022-12-23T02:19:14.529Z,1.59
2022-12-23T02:22:03.110Z,1.60
2022-12-23T02:24:54.545Z,1.74
2022-12-23T02:27:28.769Z,1.58
2022-12-23T02:30:27.765Z,1.56
2022-12-23T02:33:26.954Z,1.41
2022-12-23T02:36:05.305Z,1.50
2022-12-23T02:38:39.027Z,0.94
2022-12-23T02:41:14.159Z,1.33
2022-12-23T02:43:48.109Z,1.32
2022-12-23T02:46:23.553Z,1.24
2022-12-23T02:48:57.645Z,1.09
2022-12-23T02:51:30.074Z,1.05
2022-12-23T02:54:02.192Z,1.13
2022-12-23T02:56:33.757Z,1.19
2022-12-23T02:59:06.084Z,1.07
2022-12-23T03:01:36.946Z,1.07
2022-12-23T03:04:06.745Z,1.13
2022-12-23T03:06:40.478Z,0.98
2022-12-23T03:09:09.298Z,0.97
2022-12-23T03:11:47.020Z,1.14
2022-12-23T03:14:32.372Z,1.05
2022-12-23T03:17:13.241Z,0.88
2022-12-23T03:19:49.737Z,1.27
2022-12-23T03:22:25.817Z,1.10
2022-12-23T03:25:00.254Z,1.32
2022-12-23T03:27:32.443Z,1.40
2022-12-23T03:30:06.114Z,1.23
2022-12-23T03:32:42.260Z,1.68
2022-12-23T03:35:13.792Z,1.66
2022-12-23T03:37:45.937Z,1.54
2022-12-23T03:40:19.103Z,1.50
2022-12-23T03:42:51.974Z,1.25
2022-12-23T03:45:41.495Z,1.33
2022-12-23T03:48:18.654Z,1.46
2022-12-23T03:50:49.803Z,1.53
2022-12-23T03:53:24.406Z,1.42
2022-12-23T03:55:57.764Z,1.46
2022-12-23T03:58:35.099Z,1.66
2022-12-23T04:01:18.193Z,1.31
2022-12-23T04:03:56.148Z,1.68
2022-12-23T04:06:28.224Z,1.80
2022-12-23T04:08:58.021Z,1.71
2022-12-23T04:11:26.395Z,1.70
2022-12-23T04:13:54.620Z,1.61
2022-12-23T04:16:22.660Z,1.29
2022-12-23T04:18:51.972Z,1.62
2022-12-23T04:21:19.881Z,1.77
2022-12-23T04:23:47.853Z,1.83
2022-12-23T04:26:15.663Z,1.84
2022-12-23T04:28:43.524Z,1.86
2022-12-23T04:31:11.453Z,1.75
2022-12-23T04:33:39.376Z,1.75
2022-12-23T04:36:08.842Z,1.67
2022-12-23T04:38:36.769Z,1.57
2022-12-23T04:41:04.823Z,1.22
2022-12-23T04:43:32.707Z,1.48
2022-12-23T04:46:00.573Z,1.45
2022-12-23T04:48:28.431Z,1.42
2022-12-23T04:50:56.752Z,1.26
2022-12-23T04:53:26.029Z,1.38
2022-12-23T04:55:53.877Z,1.37
2022-12-23T04:58:24.197Z,1.11
2022-12-23T05:01:02.110Z,1.31
2022-12-23T05:03:30.205Z,1.37
2022-12-23T05:05:58.071Z,1.17
2022-12-23T05:08:27.734Z,1.37
2022-12-23T05:10:55.838Z,1.53
2022-12-23T05:13:24.174Z,1.59
2022-12-23T05:15:53.741Z,1.62
2022-12-23T05:18:22.543Z,1.67
2022-12-23T05:20:51.408Z,1.71
2022-12-23T05:23:19.366Z,1.70
2022-12-23T05:25:53.935Z,1.62
2022-12-23T05:28:22.145Z,1.60
2022-12-23T05:30:50.031Z,1.68
2022-12-23T05:33:17.932Z,1.60
2022-12-23T05:35:45.820Z,1.51
2022-12-23T05:38:13.695Z,1.74
2022-12-23T05:40:41.505Z,1.82
2022-12-23T05:43:10.787Z,1.86
2022-12-23T05:45:39.417Z,1.58
2022-12-23T05:48:07.683Z,1.91
2022-12-23T05:50:35.709Z,1.99
2022-12-23T05:53:03.943Z,2.12
2022-12-23T05:55:31.860Z,2.08
2022-12-23T05:57:59.839Z,2.27
2022-12-23T06:00:29.480Z,1.93
2022-12-23T06:02:57.900Z,2.16
2022-12-23T06:05:26.070Z,2.29
2022-12-23T06:07:53.947Z,2.30
2022-12-23T06:10:21.869Z,2.31
2022-12-23T06:12:49.786Z,2.22
2022-12-23T06:15:17.787Z,2.26
2022-12-23T06:17:47.022Z,2.01
2022-12-23T06:20:20.424Z,2.04
2022-12-23T06:22:48.726Z,1.23
2022-12-23T06:25:16.788Z,2.01
2022-12-23T06:27:44.766Z,1.72
2022-12-23T06:30:13.253Z,2.04
2022-12-23T06:32:41.216Z,1.98
2022-12-23T06:35:11.240Z,2.05
2022-12-23T06:37:39.166Z,2.01
2022-12-23T06:40:08.191Z,1.92
2022-12-23T06:42:36.065Z,2.03
2022-12-23T06:45:04.044Z,1.84
2022-12-23T06:47:31.987Z,1.76
2022-12-23T06:49:59.909Z,1.64
2022-12-23T06:52:29.257Z,1.44
2022-12-23T06:54:57.092Z,1.36
2022-12-23T06:57:25.237Z,1.78
2022-12-23T06:59:53.081Z,1.69
2022-12-23T07:02:21.175Z,2.02
2022-12-23T07:04:49.196Z,1.64
2022-12-23T07:07:17.062Z,1.76
2022-12-23T07:09:46.324Z,1.77
2022-12-23T07:12:14.245Z,1.70
2022-12-23T07:14:42.197Z,1.87
2022-12-23T07:17:10.164Z,1.93
2022-12-23T07:19:38.083Z,2.00
2022-12-23T07:22:05.937Z,2.10
2022-12-23T07:24:33.822Z,2.21
2022-12-23T07:27:03.021Z,2.19
2022-12-23T07:29:30.892Z,2.38
2022-12-23T07:31:58.944Z,2.57
2022-12-23T07:34:26.941Z,2.57
2022-12-23T07:36:54.880Z,2.32
2022-12-23T07:39:22.932Z,2.74
2022-12-23T07:41:59.046Z,2.70
2022-12-23T07:44:38.582Z,2.42
2022-12-23T07:47:06.551Z,2.72
2022-12-23T07:49:34.456Z,2.71
2022-12-23T07:52:02.334Z,2.89
2022-12-23T07:54:30.335Z,2.58
2022-12-23T07:56:58.257Z,3.09
2022-12-23T07:59:26.921Z,3.83
2022-12-23T08:01:56.471Z,4.55
2022-12-23T08:04:25.092Z,5.16
2022-12-23T08:06:53.014Z,5.48
2022-12-23T08:09:21.062Z,5.96
2022-12-23T08:11:49.069Z,5.94
2022-12-23T08:14:16.946Z,6.00
2022-12-23T08:16:44.862Z,6.19
2022-12-23T08:19:14.191Z,6.29
2022-12-23T08:21:42.120Z,6.56
2022-12-23T08:24:11.313Z,7.09
2022-12-23T08:26:39.244Z,7.19
2022-12-23T08:29:07.169Z,7.08
2022-12-23T08:31:35.234Z,7.23
2022-12-23T08:34:03.258Z,7.45
2022-12-23T08:36:36.137Z,7.39
2022-12-23T08:39:07.730Z,7.57
2022-12-23T08:41:44.897Z,7.70
2022-12-23T08:44:13.186Z,8.04
2022-12-23T08:46:41.555Z,8.08
2022-12-23T08:49:09.667Z,8.42
2022-12-23T08:51:46.947Z,8.56
2022-12-23T08:54:15.515Z,9.24
2022-12-23T08:56:44.480Z,9.35
2022-12-23T08:59:19.230Z,9.45
2022-12-23T09:01:49.196Z,9.01
2022-12-23T09:04:17.224Z,9.05
2022-12-23T09:06:46.586Z,9.06
2022-12-23T09:09:15.745Z,9.03
2022-12-23T09:11:44.571Z,9.08
2022-12-23T09:14:13.154Z,9.02
2022-12-23T09:16:41.409Z,9.11
2022-12-23T09:19:09.336Z,9.03
2022-12-23T09:21:37.802Z,9.28
2022-12-23T09:24:07.649Z,9.70
2022-12-23T09:26:35.653Z,9.62
2022-12-23T09:29:03.806Z,9.04
2022-12-23T09:31:36.704Z,8.90
2022-12-23T09:34:05.814Z,8.66
2022-12-23T09:36:35.342Z,8.22
2022-12-23T09:39:03.928Z,9.33
2022-12-23T09:41:48.652Z,9.14
2022-12-23T09:44:38.601Z,9.09
2022-12-23T09:47:12.949Z,8.95
2022-12-23T09:49:48.272Z,9.04
2022-12-23T09:52:23.857Z,9.07
2022-12-23T09:54:54.605Z,8.98
2022-12-23T09:57:30.062Z,8.76
2022-12-23T10:00:08.670Z,9.47
2022-12-23T10:03:00.212Z,9.16
2022-12-23T10:05:38.471Z,8.77
2022-12-23T10:08:13.759Z,8.74
2022-12-23T10:10:44.929Z,8.50
2022-12-23T10:13:23.304Z,8.99
2022-12-23T10:15:53.238Z,8.98
2022-12-23T10:18:27.914Z,9.00
2022-12-23T10:21:04.202Z,8.77
2022-12-23T10:23:37.852Z,8.79
2022-12-23T10:26:15.790Z,8.67
2022-12-23T10:28:45.080Z,8.52
2022-12-23T10:34:13.811Z,8.52
2022-12-23T10:36:49.158Z,8.50
2022-12-23T10:39:26.213Z,8.43
2022-12-23T10:42:04.079Z,8.64
2022-12-23T10:45:03.633Z,8.92
2022-12-23T10:47:42.585Z,8.94
2022-12-23T10:50:37.232Z,9.41
2022-12-23T10:53:12.256Z,9.38
2022-12-23T10:55:40.697Z,9.56
2022-12-23T10:58:14.582Z,9.68
2022-12-23T11:00:49.522Z,9.69
2022-12-23T11:03:23.357Z,9.45
2022-12-23T11:05:53.725Z,9.45
2022-12-23T11:08:23.809Z,9.39
2022-12-23T11:10:51.941Z,9.08
2022-12-23T11:13:37.065Z,8.94
2022-12-23T11:16:23.293Z,9.04
2022-12-23T11:18:56.913Z,8.53
2022-12-23T11:21:25.035Z,9.51
2022-12-23T11:24:09.435Z,10.09
2022-12-23T11:26:38.038Z,9.86
2022-12-23T11:29:10.641Z,10.04
2022-12-23T11:31:40.248Z,9.89
2022-12-23T11:34:17.753Z,9.54
2022-12-23T11:36:55.146Z,9.37
2022-12-23T11:39:27.797Z,9.05
2022-12-23T11:42:03.237Z,9.15
2022-12-23T11:44:36.097Z,8.99
2022-12-23T11:47:34.248Z,8.91
2022-12-23T11:50:08.036Z,8.80
2022-12-23T11:52:36.112Z,8.56
2022-12-23T11:55:08.209Z,8.77
2022-12-23T11:57:43.011Z,7.59
2022-12-23T12:00:21.867Z,8.63
2022-12-23T12:02:53.771Z,8.38
2022-12-23T12:05:26.454Z,8.55
2022-12-23T12:07:59.457Z,8.53
2022-12-23T12:10:31.573Z,8.61
2022-12-23T12:13:02.797Z,8.62
2022-12-23T12:15:38.054Z,8.97
2022-12-23T12:18:10.769Z,9.20
2022-12-23T12:20:42.245Z,9.41
2022-12-23T12:23:15.770Z,9.35
2022-12-23T12:25:48.857Z,9.44
2022-12-23T12:28:22.010Z,9.67
2022-12-23T12:30:55.039Z,9.51
2022-12-23T12:33:31.191Z,10.06
2022-12-23T12:36:13.115Z,10.17
2022-12-23T12:38:41.523Z,10.35
2022-12-23T12:41:18.146Z,10.55
2022-12-23T12:43:51.482Z,10.64
2022-12-23T12:46:28.205Z,10.67
2022-12-23T12:49:04.968Z,10.74
2022-12-23T12:51:39.343Z,10.80
2022-12-23T12:54:16.874Z,10.93
2022-12-23T12:56:49.728Z,10.87
2022-12-23T12:59:20.723Z,10.81
2022-12-23T13:02:10.361Z,10.82
2022-12-23T13:05:08.886Z,10.64
2022-12-23T13:07:48.700Z,10.42
2022-12-23T13:10:33.873Z,10.22
2022-12-23T13:13:10.852Z,10.14
2022-12-23T13:15:49.645Z,10.39
2022-12-23T13:18:29.757Z,10.72
2022-12-23T13:21:04.761Z,11.24
2022-12-23T13:23:44.805Z,11.23
2022-12-23T13:26:21.135Z,11.15
2022-12-23T13:28:59.371Z,11.35
2022-12-23T13:31:35.929Z,11.32
2022-12-23T13:34:17.576Z,11.30
2022-12-23T13:36:58.120Z,11.05
2022-12-23T13:39:36.779Z,11.51
2022-12-23T13:42:06.698Z,11.58
2022-12-23T13:44:35.726Z,11.36
2022-12-23T13:47:13.603Z,11.58
2022-12-23T13:49:54.163Z,11.52
2022-12-23T13:52:31.876Z,11.65
2022-12-23T13:55:12.395Z,11.43
2022-12-23T13:57:54.545Z,11.42
2022-12-23T14:00:28.599Z,11.43
2022-12-23T14:03:23.520Z,11.00
2022-12-23T14:05:52.428Z,11.04
2022-12-23T14:08:26.662Z,10.78
2022-12-23T14:10:57.301Z,10.45
2022-12-23T14:13:28.367Z,10.18
2022-12-23T14:16:19.590Z,10.02
2022-12-23T14:19:07.568Z,9.91
2022-12-23T14:21:48.409Z,9.04
2022-12-23T14:24:51.890Z,9.64
2022-12-23T14:27:33.873Z,9.51
2022-12-23T14:30:12.106Z,9.33
2022-12-23T14:32:47.024Z,8.96
2022-12-23T14:35:22.492Z,9.17
2022-12-23T14:38:10.770Z,9.05
2022-12-23T14:41:01.811Z,9.14
2022-12-23T14:43:52.721Z,9.06
2022-12-23T14:46:59.336Z,8.96
2022-12-23T14:49:42.875Z,8.85
2022-12-23T14:52:59.561Z,8.89
2022-12-23T14:55:45.513Z,9.00
2022-12-23T14:58:39.456Z,8.89
2022-12-23T15:01:13.116Z,8.69
2022-12-23T15:03:48.142Z,8.70
2022-12-23T15:06:20.327Z,8.48
2022-12-23T15:08:51.895Z,8.40
2022-12-23T15:11:25.819Z,8.54
2022-12-23T15:13:58.009Z,8.22
2022-12-23T15:16:34.660Z,8.38
2022-12-23T15:19:13.489Z,8.24
2022-12-23T15:21:41.462Z,7.64
2022-12-23T15:24:15.627Z,8.15
2022-12-23T15:27:09.916Z,8.18
2022-12-23T15:29:43.715Z,8.04
2022-12-23T15:32:12.784Z,8.10
2022-12-23T15:34:41.496Z,8.43
2022-12-23T15:37:12.370Z,8.14
2022-12-23T15:39:43.825Z,8.51
2022-12-23T15:42:25.181Z,8.79
2022-12-23T15:44:54.772Z,8.51
2022-12-23T15:47:25.199Z,8.42
2022-12-23T15:49:53.407Z,8.25
2022-12-23T15:52:21.738Z,8.17
2022-12-23T15:54:56.395Z,8.45
2022-12-23T15:57:27.670Z,8.19
2022-12-23T15:59:57.491Z,8.05
2022-12-23T16:02:59.804Z,7.83
2022-12-23T16:05:27.495Z,7.71
2022-12-23T16:08:12.002Z,7.57
2022-12-23T16:10:41.094Z,7.37
2022-12-23T16:13:18.780Z,7.18
2022-12-23T16:15:48.577Z,7.34
2022-12-23T16:18:23.529Z,7.23
2022-12-23T16:20:54.592Z,7.21
2022-12-23T16:23:23.650Z,7.16
2022-12-23T16:25:54.483Z,7.10
2022-12-23T16:28:24.575Z,7.04
2022-12-23T16:30:55.648Z,6.83
2022-12-23T16:33:32.911Z,6.39
2022-12-23T16:36:16.829Z,6.54
2022-12-23T16:38:45.101Z,6.70
2022-12-23T16:41:13.022Z,6.60
2022-12-23T16:43:51.233Z,6.59
2022-12-23T16:46:23.591Z,6.52
2022-12-23T16:48:55.428Z,6.57
2022-12-23T16:51:24.579Z,6.24
2022-12-23T16:53:55.250Z,6.28
2022-12-23T16:56:27.464Z,6.23
2022-12-23T16:58:55.424Z,6.09
2022-12-23T17:01:27.011Z,6.18
2022-12-23T17:03:55.898Z,6.13
2022-12-23T17:06:25.324Z,5.69
2022-12-23T17:08:54.203Z,5.89
2022-12-23T17:11:25.183Z,5.82
2022-12-23T17:13:57.899Z,5.86
2022-12-23T17:16:31.007Z,5.87
2022-12-23T17:18:59.010Z,5.81
2022-12-23T17:21:30.420Z,5.45
2022-12-23T17:24:04.276Z,5.49
2022-12-23T17:26:32.187Z,5.43
2022-12-23T17:29:00.158Z,5.64
2022-12-23T17:31:28.396Z,5.50
2022-12-23T17:33:57.722Z,5.49
2022-12-23T17:36:25.691Z,5.51
2022-12-23T17:38:53.580Z,5.11
2022-12-23T17:41:27.947Z,5.49
2022-12-23T17:43:56.707Z,5.44
2022-12-23T17:46:25.215Z,5.39
2022-12-23T17:48:53.472Z,4.88
2022-12-23T17:51:24.445Z,5.20
2022-12-23T17:53:57.767Z,5.36
2022-12-23T17:56:28.565Z,5.18
2022-12-23T17:58:56.491Z,5.42
2022-12-23T18:01:27.723Z,5.38
2022-12-23T18:03:57.141Z,5.43
2022-12-23T18:06:27.848Z,5.17
2022-12-23T18:08:56.953Z,4.85
2022-12-23T18:11:31.387Z,5.25
2022-12-23T18:13:59.397Z,5.14
2022-12-23T18:16:27.352Z,5.04
2022-12-23T18:18:55.345Z,5.38
2022-12-23T18:21:26.060Z,5.19
2022-12-23T18:23:57.691Z,5.58
2022-12-23T18:26:26.315Z,5.67
2022-12-23T18:28:54.788Z,5.72
2022-12-23T18:31:27.248Z,5.70
2022-12-23T18:33:55.440Z,5.60
2022-12-23T18:36:25.006Z,5.60
2022-12-23T18:38:53.263Z,5.27
2022-12-23T18:41:22.892Z,5.65
2022-12-23T18:43:51.795Z,5.59
2022-12-23T18:46:20.846Z,5.53
2022-12-23T18:48:49.113Z,5.54
2022-12-23T18:51:18.659Z,5.32
2022-12-23T18:53:47.367Z,5.27
2022-12-23T18:56:16.277Z,5.23
2022-12-23T18:58:45.575Z,4.77
2022-12-23T19:01:14.302Z,5.16
2022-12-23T19:03:43.273Z,5.30
2022-12-23T19:06:14.193Z,5.33
2022-12-23T19:08:43.119Z,5.29
2022-12-23T19:11:12.812Z,5.29
2022-12-23T19:13:41.036Z,5.26
2022-12-23T19:16:13.943Z,5.09
2022-12-23T19:18:42.170Z,5.01
2022-12-23T19:21:10.321Z,5.13
2022-12-23T19:23:38.304Z,5.13
2022-12-23T19:26:06.863Z,5.01
2022-12-23T19:28:35.054Z,5.04
2022-12-23T19:31:08.266Z,5.05
2022-12-23T19:33:40.778Z,4.98
2022-12-23T19:36:12.905Z,4.64
2022-12-23T19:38:41.112Z,4.57
2022-12-23T19:41:09.554Z,4.39
2022-12-23T19:43:39.809Z,4.11
2022-12-23T19:46:10.210Z,3.98
2022-12-23T19:48:39.990Z,3.99
2022-12-23T19:51:09.645Z,4.10
2022-12-23T19:53:38.014Z,3.88
2022-12-23T19:56:08.255Z,3.99
2022-12-23T19:58:39.710Z,4.01
2022-12-23T20:01:10.163Z,3.75
2022-12-23T20:03:39.731Z,3.89
2022-12-23T20:06:10.241Z,3.71
2022-12-23T20:08:38.105Z,3.91
2022-12-23T20:11:07.542Z,3.82
2022-12-23T20:13:36.160Z,3.82
2022-12-23T20:16:04.933Z,4.02
2022-12-23T20:18:32.915Z,4.10
2022-12-23T20:21:02.977Z,3.80
2022-12-23T20:23:31.206Z,3.97
2022-12-23T20:25:59.076Z,3.94
2022-12-23T20:28:27.471Z,4.37
2022-12-23T20:31:01.620Z,4.80
2022-12-23T20:33:29.576Z,5.29
2022-12-23T20:35:57.889Z,5.39
2022-12-23T20:38:27.415Z,5.09
2022-12-23T20:40:55.471Z,5.52
2022-12-23T20:43:23.452Z,5.08
2022-12-23T20:45:52.481Z,4.57
2022-12-23T20:48:21.767Z,4.27
2022-12-23T20:50:50.046Z,4.16
2022-12-23T20:53:18.099Z,3.99
2022-12-23T20:55:47.388Z,4.00
2022-12-23T20:58:32.986Z,3.95
2022-12-23T21:01:09.582Z,3.95
2022-12-23T21:03:37.561Z,3.64
2022-12-23T21:06:06.032Z,3.23
2022-12-23T21:08:34.146Z,3.11
2022-12-23T21:11:04.073Z,3.14
2022-12-23T21:13:32.098Z,3.16
2022-12-23T21:16:03.174Z,3.07
2022-12-23T21:18:31.128Z,3.36
2022-12-23T21:21:01.029Z,2.87
2022-12-23T21:23:29.479Z,3.20
2022-12-23T21:26:10.765Z,3.09
2022-12-23T21:28:39.187Z,3.02
2022-12-23T21:31:07.702Z,3.06
2022-12-23T21:33:37.812Z,2.98
2022-12-23T21:36:07.021Z,3.28
2022-12-23T21:38:36.771Z,3.30
2022-12-23T21:41:07.544Z,3.09
2022-12-23T21:43:37.281Z,3.23
2022-12-23T21:46:07.095Z,3.42
2022-12-23T21:48:36.800Z,3.50
2022-12-23T21:51:06.554Z,3.47
2022-12-23T21:53:35.042Z,3.48
2022-12-23T21:56:06.043Z,3.57
2022-12-23T21:58:34.698Z,3.64
2022-12-23T22:01:07.760Z,3.76
2022-12-23T22:03:36.229Z,3.77
2022-12-23T22:06:10.658Z,3.68
2022-12-23T22:08:39.217Z,3.91
2022-12-23T22:11:08.592Z,3.68
2022-12-23T22:13:36.744Z,3.53
2022-12-23T22:16:10.231Z,3.38
2022-12-23T22:18:38.981Z,3.40
2022-12-23T22:21:07.713Z,2.97
2022-12-23T22:23:35.783Z,2.92
2022-12-23T22:26:03.608Z,2.97
2022-12-23T22:28:32.522Z,3.00
2022-12-23T22:31:03.412Z,2.96
2022-12-23T22:33:32.861Z,2.92
2022-12-23T22:36:01.745Z,2.70
2022-12-23T22:38:29.705Z,2.78
2022-12-23T22:40:57.603Z,2.58
2022-12-23T22:43:25.495Z,2.81
2022-12-23T22:45:57.599Z,2.06
2022-12-23T22:48:26.294Z,2.69
2022-12-23T22:51:03.138Z,2.50
2022-12-23T22:53:31.165Z,2.46
2022-12-23T22:55:59.541Z,2.44
2022-12-23T22:58:28.026Z,2.07
2022-12-23T23:00:56.274Z,2.02
2022-12-23T23:03:25.505Z,1.79
2022-12-23T23:06:04.101Z,1.78
2022-12-23T23:08:32.514Z,1.13
2022-12-23T23:11:02.245Z,1.49
2022-12-23T23:13:31.911Z,1.89
2022-12-23T23:16:00.466Z,2.03
2022-12-23T23:18:29.363Z,2.01
2022-12-23T23:20:57.460Z,1.96
2022-12-23T23:23:26.940Z,1.92
2022-12-23T23:25:54.945Z,1.75
2022-12-23T23:28:22.808Z,1.80
2022-12-23T23:31:09.792Z,1.58
2022-12-23T23:33:39.506Z,1.49
2022-12-23T23:36:08.463Z,1.55
2022-12-23T23:38:37.873Z,1.59
2022-12-23T23:41:06.570Z,1.50
2022-12-23T23:43:34.395Z,1.51
2022-12-23T23:46:02.632Z,1.57
2022-12-23T23:48:30.514Z,1.63
2022-12-23T23:51:04.769Z,1.73
2022-12-23T23:53:32.661Z,1.76
2022-12-23T23:56:07.706Z,1.27
2022-12-23T23:58:36.764Z,1.46
